Time;durP1;ratioP1;P1;durP2;ratioP2;P2;SDS_P1;SDS_P2;PMS_P1;PMS_P2;Temp;Humidity;BMP_temperature;BMP_pressure;BME280_temperature;BME280_humidity;BME280_pressure;Samples;Min_cycle;Max_cycle;Signal;HPM_P1;HPM_P2
2022/06/08 00:00:47;;;;;;;1.52;1.27;;;;;;;19.04;49.32;99363.98;1693196;84;22359;-81
2022/06/08 00:03:23;;;;;;;1.87;1.40;;;;;;;19.03;49.19;99361.81;1693641;84;21075;-81
2022/06/08 00:05:51;;;;;;;7.50;1.40;;;;;;;19.03;48.95;99360.94;1693530;84;21314;-82
2022/06/08 00:08:19;;;;;;;2.40;1.20;;;;;;;19.06;48.75;99363.39;1693259;84;21613;-81
2022/06/08 00:10:46;;;;;;;2.47;1.37;;;;;;;19.06;48.59;99363.39;1692670;84;21050;-81
2022/06/08 00:13:12;;;;;;;2.10;1.50;;;;;;;19.09;48.41;99359.17;1687897;85;21126;-83
2022/06/08 00:15:41;;;;;;;4.00;1.40;;;;;;;19.10;48.38;99363.06;1687720;85;21199;-82
2022/06/08 00:18:09;;;;;;;1.92;1.30;;;;;;;19.12;48.38;99355.80;1687791;85;21621;-82
2022/06/08 00:20:37;;;;;;;1.98;1.35;;;;;;;19.14;48.32;99357.52;1688023;84;21138;-81
2022/06/08 00:23:04;;;;;;;1.50;1.25;;;;;;;19.13;48.26;99357.97;1687718;84;21047;-82
2022/06/08 00:25:31;;;;;;;2.75;1.20;;;;;;;19.13;48.22;99359.31;1687945;85;21115;-81
2022/06/08 00:27:57;;;;;;;1.35;1.17;;;;;;;19.14;48.05;99364.18;1687676;84;21075;-81
2022/06/08 00:30:25;;;;;;;1.37;1.12;;;;;;;19.15;48.06;99365.41;1687944;85;21079;-82
2022/06/08 00:32:53;;;;;;;1.82;1.35;;;;;;;19.14;48.24;99361.02;1687576;85;21711;-82
2022/06/08 00:35:20;;;;;;;2.55;1.17;;;;;;;19.11;48.14;99359.91;1687743;85;21055;-83
2022/06/08 00:37:47;;;;;;;3.75;1.70;;;;;;;19.09;48.19;99359.17;1687802;84;21073;-82
2022/06/08 00:40:15;;;;;;;2.25;1.07;;;;;;;19.07;48.37;99353.11;1687472;85;21004;-82
2022/06/08 00:42:42;;;;;;;1.70;1.30;;;;;;;19.06;48.37;99354.06;1687897;85;21470;-82
2022/06/08 00:45:14;;;;;;;2.12;1.30;;;;;;;19.04;48.91;99353.33;1687559;85;21795;-82
2022/06/08 00:47:54;;;;;;;1.00;1.00;;;;;;;19.01;50.72;99352.20;1687119;84;21102;-83
2022/06/08 00:50:47;;;;;;;2.10;1.20;;;;;;;18.94;51.37;99349.97;1687462;84;21194;-84
2022/06/08 00:53:16;;;;;;;1.67;1.17;;;;;;;18.80;52.17;99352.77;1687743;84;21106;-82
2022/06/08 00:55:44;;;;;;;2.15;1.27;;;;;;;18.65;52.52;99352.03;1687742;84;21050;-81
2022/06/08 00:58:15;;;;;;;0.82;0.82;;;;;;;18.51;53.59;99349.02;1687576;85;21012;-81
2022/06/08 01:00:42;;;;;;;2.70;1.37;;;;;;;18.40;54.13;99347.58;1688039;85;21155;-83
2022/06/08 01:03:12;;;;;;;1.57;1.30;;;;;;;18.30;54.48;99346.52;1666003;85;21154;-82
2022/06/08 01:05:51;;;;;;;1.42;1.32;;;;;;;18.18;55.09;99351.72;1687505;84;21046;-82
2022/06/08 01:08:36;;;;;;;4.22;1.02;;;;;;;18.05;55.64;99350.86;1687617;84;21126;-83
2022/06/08 01:11:08;;;;;;;4.90;1.37;;;;;;;17.94;55.80;99348.09;1688571;84;21023;-82
2022/06/08 01:13:35;;;;;;;2.20;1.17;;;;;;;17.81;56.43;99351.53;1689281;84;21173;-82
2022/06/08 01:16:06;;;;;;;1.47;1.12;;;;;;;17.68;57.02;99347.98;1700111;84;21361;-83
2022/06/08 01:18:33;;;;;;;1.32;1.22;;;;;;;17.57;57.34;99347.88;1699856;84;21026;-82
2022/06/08 01:21:27;;;;;;;3.67;1.70;;;;;;;17.45;58.03;99350.38;1700001;84;21097;-82
2022/06/08 01:23:59;;;;;;;1.47;1.35;;;;;;;17.32;58.42;99356.12;1699257;84;21678;-82
2022/06/08 01:26:41;;;;;;;2.70;1.22;;;;;;;17.21;58.89;99346.65;1699917;84;21247;-83
2022/06/08 01:29:20;;;;;;;2.60;1.37;;;;;;;17.09;59.14;99348.30;1700230;84;21854;-83
2022/06/08 01:32:04;;;;;;;1.50;1.40;;;;;;;17.01;59.39;99348.80;1699648;84;21058;-82
2022/06/08 01:35:09;;;;;;;2.15;1.72;;;;;;;16.93;59.80;99348.44;1702639;84;21083;-82
2022/06/08 01:38:00;;;;;;;4.40;1.80;;;;;;;16.84;60.25;99355.61;1702758;84;21542;-83
2022/06/08 01:40:49;;;;;;;2.90;2.10;;;;;;;16.72;60.59;99351.92;1702944;84;20995;-83
2022/06/08 01:43:43;;;;;;;2.70;1.70;;;;;;;16.62;60.80;99350.31;1702834;84;21167;-81
2022/06/08 01:46:21;;;;;;;2.75;1.60;;;;;;;16.55;60.88;99355.63;1699008;84;21062;-84
2022/06/08 01:49:26;;;;;;;2.67;1.85;;;;;;;16.47;61.21;99353.44;1699017;84;21084;-82
2022/06/08 01:52:08;;;;;;;1.90;1.75;;;;;;;16.43;61.38;99360.38;1698533;84;21120;-82
2022/06/08 01:54:52;;;;;;;2.42;2.22;;;;;;;16.37;61.74;99360.75;1698501;84;21089;-82
2022/06/08 01:57:35;;;;;;;;;;;;;;;16.29;62.05;99356.77;1701424;84;22167;-82
2022/06/08 02:00:09;;;;;;;2.12;1.50;;;;;;;16.24;62.41;99360.63;1698495;84;20265;-83
2022/06/08 02:03:08;;;;;;;2.17;1.87;;;;;;;16.18;62.57;99351.73;1698837;84;21148;-83
2022/06/08 02:06:20;;;;;;;1.80;1.70;;;;;;;16.11;62.90;99357.88;1699039;84;21166;-83
2022/06/08 02:09:01;;;;;;;4.30;1.98;;;;;;;16.08;63.32;99355.41;1698493;84;21029;-83
2022/06/08 02:11:45;;;;;;;2.17;1.85;;;;;;;16.04;63.56;99360.50;1697215;84;21059;-82
2022/06/08 02:14:18;;;;;;;3.67;2.08;;;;;;;16.04;63.79;99365.80;1686272;85;22143;-82
2022/06/08 02:16:52;;;;;;;2.12;2.02;;;;;;;16.02;64.09;99362.39;1686059;85;21096;-81
2022/06/08 02:19:22;;;;;;;;;;;;;;;16.00;64.29;99362.97;1688495;85;21612;-82
2022/06/08 02:21:54;;;;;;;2.27;2.10;;;;;;;15.98;64.28;99359.92;1676026;85;20205;-82
2022/06/08 02:24:41;;;;;;;5.40;2.20;;;;;;;15.97;64.28;99367.52;1667281;86;21539;-82
2022/06/08 02:27:27;;;;;;;2.70;2.27;;;;;;;15.94;64.31;99365.04;1667475;86;21097;-82
2022/06/08 02:30:08;;;;;;;2.25;2.15;;;;;;;15.91;64.67;99365.22;1667664;85;21154;-83
2022/06/08 02:35:50;;;;;;;2.85;2.50;;;;;;;15.90;64.84;99365.30;1650058;85;21089;-83
2022/06/08 02:38:22;;;;;;;3.67;2.22;;;;;;;15.93;64.67;99366.45;1669237;85;21185;-82
2022/06/08 02:40:54;;;;;;;2.08;1.98;;;;;;;15.95;65.10;99362.78;1669485;85;21101;-82
2022/06/08 02:43:35;;;;;;;3.90;2.80;;;;;;;15.97;65.58;99362.21;1669386;85;21071;-82
2022/06/08 02:46:26;;;;;;;3.40;2.40;;;;;;;15.98;65.67;99369.20;1669176;85;21096;-82
2022/06/08 02:48:54;;;;;;;2.58;2.12;;;;;;;15.98;65.88;99367.88;1669503;85;21141;-82
2022/06/08 02:51:28;;;;;;;6.97;2.10;;;;;;;16.02;66.56;99369.03;1669522;85;21202;-83
2022/06/08 02:54:07;;;;;;;2.80;2.22;;;;;;;16.03;67.08;99372.92;1669329;85;21092;-82
2022/06/08 02:56:49;;;;;;;2.80;2.08;;;;;;;16.08;67.23;99372.17;1669664;85;21030;-82
2022/06/08 02:59:24;;;;;;;2.70;2.27;;;;;;;16.14;67.73;99374.95;1669455;85;21139;-80
2022/06/08 03:02:01;;;;;;;6.72;2.42;;;;;;;16.21;68.12;99373.63;1669121;85;21025;-80
2022/06/08 03:04:45;;;;;;;5.35;2.87;;;;;;;16.26;68.27;99372.88;1646142;85;21172;-80
2022/06/08 03:07:16;;;;;;;2.60;2.40;;;;;;;16.35;68.09;99374.96;1669615;85;21589;-82
2022/06/08 03:09:43;;;;;;;3.75;2.30;;;;;;;16.44;68.62;99364.73;1669514;85;21053;-82
2022/06/08 03:12:29;;;;;;;4.58;2.42;;;;;;;16.53;68.91;99369.49;1670769;84;21347;-81
2022/06/08 03:14:57;;;;;;;5.80;2.42;;;;;;;16.62;69.47;99370.23;1674187;85;21081;-82
2022/06/08 03:17:27;;;;;;;2.92;2.15;;;;;;;16.73;68.54;99366.93;1669906;85;21972;-82
2022/06/08 03:19:54;;;;;;;2.67;2.25;;;;;;;16.82;67.50;99357.52;1669519;85;21101;-81
2022/06/08 03:22:21;;;;;;;5.60;2.50;;;;;;;16.91;66.94;99359.61;1674565;85;21341;-81
2022/06/08 03:24:49;;;;;;;5.50;2.95;;;;;;;17.01;68.44;99358.11;1674431;85;21128;-82
2022/06/08 03:27:15;;;;;;;4.95;2.65;;;;;;;17.11;68.65;99357.50;1674545;85;21092;-82
2022/06/08 03:29:43;;;;;;;4.28;2.10;;;;;;;17.20;68.41;99363.58;1687701;84;21333;-83
2022/06/08 03:32:10;;;;;;;2.85;2.00;;;;;;;17.29;65.40;99360.30;1723648;83;21046;-81
2022/06/08 03:34:38;;;;;;;7.33;2.40;;;;;;;17.40;63.53;99362.25;1701168;84;21038;-82
2022/06/08 03:37:05;;;;;;;10.48;2.02;;;;;;;17.53;62.25;99362.31;1723427;83;21136;-80
2022/06/08 03:39:33;;;;;;;7.05;1.92;;;;;;;17.67;61.34;99362.72;1701019;84;21657;-83
2022/06/08 03:42:01;;;;;;;5.58;1.65;;;;;;;17.83;60.78;99361.59;1714071;83;21164;-83
2022/06/08 03:44:28;;;;;;;7.72;2.10;;;;;;;18.01;59.93;99361.35;1709174;83;21503;-82
2022/06/08 03:47:03;;;;;;;9.75;3.20;;;;;;;18.19;59.12;99360.09;1709207;83;20981;-82
2022/06/08 03:49:30;;;;;;;7.20;2.67;;;;;;;18.37;57.85;99358.44;1709162;83;21566;-81
2022/06/08 03:51:57;;;;;;;7.87;2.80;;;;;;;18.56;57.23;99361.53;1709230;83;21004;-81
2022/06/08 03:54:29;;;;;;;5.78;2.83;;;;;;;18.73;56.39;99363.50;1709085;83;21971;-81
2022/06/08 03:56:59;;;;;;;4.12;2.75;;;;;;;18.86;55.89;99364.36;1709424;83;21970;-84
2022/06/08 03:59:25;;;;;;;6.58;2.42;;;;;;;19.00;55.54;99361.19;1709077;83;21099;-82
2022/06/08 04:01:53;;;;;;;4.20;1.90;;;;;;;19.11;54.65;99357.23;1691950;84;21505;-82
2022/06/08 04:04:21;;;;;;;2.70;1.72;;;;;;;19.21;53.57;99356.94;1662569;86;21490;-82
2022/06/08 04:06:49;;;;;;;6.12;1.80;;;;;;;19.32;53.76;99364.17;1662791;86;21143;-79
2022/06/08 04:09:17;;;;;;;2.02;1.30;;;;;;;19.43;52.99;99364.24;1662470;86;21129;-83
2022/06/08 04:11:46;;;;;;;2.65;1.30;;;;;;;19.53;52.10;99366.22;1662620;86;21094;-82
2022/06/08 04:14:12;;;;;;;2.45;1.70;;;;;;;19.62;52.38;99365.55;1648504;86;21322;-84
2022/06/08 04:16:40;;;;;;;1.95;1.22;;;;;;;19.72;51.67;99365.68;1648229;87;21024;-82
2022/06/08 04:19:09;;;;;;;1.30;1.20;;;;;;;19.83;51.68;99369.77;1648651;87;21664;-82
2022/06/08 04:21:36;;;;;;;4.30;0.82;;;;;;;19.92;51.08;99369.55;1648256;86;21158;-84
2022/06/08 04:24:06;;;;;;;0.98;0.98;;;;;;;19.99;50.15;99367.65;1648430;86;21037;-84
2022/06/08 04:26:33;;;;;;;5.55;1.07;;;;;;;20.09;49.08;99362.92;1648497;87;21024;-82
2022/06/08 04:29:06;;;;;;;3.08;1.30;;;;;;;20.20;49.22;99366.47;1647271;86;21072;-81
2022/06/08 04:31:34;;;;;;;2.33;1.10;;;;;;;20.31;49.15;99365.66;1648367;87;21099;-82
2022/06/08 04:34:05;;;;;;;3.42;1.05;;;;;;;20.40;49.38;99363.59;1648249;86;21492;-84
2022/06/08 04:36:33;;;;;;;1.70;1.20;;;;;;;20.51;49.46;99364.57;1650037;86;21056;-82
2022/06/08 04:39:00;;;;;;;6.03;1.17;;;;;;;20.62;50.23;99359.73;1677175;85;21121;-81
2022/06/08 04:41:28;;;;;;;6.87;1.70;;;;;;;20.72;49.66;99361.58;1677685;85;21599;-85
2022/06/08 04:43:56;;;;;;;3.95;1.87;;;;;;;20.84;48.93;99364.26;1677089;85;21883;-82
2022/06/08 04:46:23;;;;;;;7.08;1.40;;;;;;;20.94;49.12;99362.55;1677329;85;21569;-81
2022/06/08 04:48:51;;;;;;;4.40;1.20;;;;;;;21.05;48.59;99363.03;1677238;85;21025;-80
2022/06/08 04:51:19;;;;;;;9.58;1.30;;;;;;;21.15;47.75;99362.66;1677258;85;21030;-81
2022/06/08 04:53:47;;;;;;;2.90;1.37;;;;;;;21.25;47.54;99365.41;1677504;85;21144;-82
2022/06/08 04:56:14;;;;;;;6.08;1.10;;;;;;;21.34;46.60;99372.70;1677336;85;21167;-82
2022/06/08 04:58:42;;;;;;;4.83;1.30;;;;;;;21.41;47.17;99371.20;1677275;84;21073;-84
2022/06/08 05:01:10;;;;;;;2.65;1.05;;;;;;;21.51;47.14;99371.34;1677196;85;21037;-83
2022/06/08 05:03:36;;;;;;;6.42;1.30;;;;;;;21.60;47.41;99371.94;1677105;85;21089;-82
2022/06/08 05:06:05;;;;;;;5.20;1.20;;;;;;;21.70;46.39;99370.66;1677390;85;21096;-83
2022/06/08 05:08:34;;;;;;;9.18;2.27;;;;;;;21.81;46.04;99378.66;1677493;85;21159;-83
2022/06/08 05:11:04;;;;;;;2.70;1.10;;;;;;;21.89;45.44;99372.16;1677344;85;21101;-83
2022/06/08 05:13:32;;;;;;;9.10;1.12;;;;;;;21.99;45.80;99370.03;1677333;84;21070;-82
2022/06/08 05:16:01;;;;;;;9.83;1.10;;;;;;;22.08;46.15;99372.79;1676839;85;21134;-82
2022/06/08 05:18:28;;;;;;;3.42;0.90;;;;;;;22.16;45.37;99372.66;1677346;85;21160;-83
2022/06/08 05:20:57;;;;;;;3.08;1.30;;;;;;;22.22;44.80;99374.28;1677498;85;21505;-82
2022/06/08 05:23:30;;;;;;;4.15;1.45;;;;;;;22.30;45.52;99376.35;1677110;85;21018;-81
2022/06/08 05:25:58;;;;;;;5.92;1.40;;;;;;;22.44;45.57;99376.03;1655837;85;21112;-83
2022/06/08 05:28:25;;;;;;;3.52;1.20;;;;;;;22.53;45.66;99370.86;1664862;84;21166;-83
2022/06/08 05:30:56;;;;;;;3.58;1.35;;;;;;;22.61;44.71;99379.92;1693553;84;21055;-80
2022/06/08 05:33:24;;;;;;;8.90;2.02;;;;;;;22.68;44.88;99367.30;1693394;84;21264;-83
2022/06/08 05:35:51;;;;;;;7.85;1.10;;;;;;;22.75;44.34;99368.48;1693573;84;21116;-83
2022/06/08 05:38:18;;;;;;;6.25;1.22;;;;;;;22.80;44.17;99369.77;1693853;84;21149;-82
2022/06/08 05:40:47;;;;;;;7.78;1.77;;;;;;;22.87;43.46;99372.76;1693611;84;21165;-82
2022/06/08 05:43:14;;;;;;;3.60;1.20;;;;;;;22.92;44.26;99372.36;1693462;84;21141;-81
2022/06/08 05:45:42;;;;;;;8.45;1.40;;;;;;;22.96;43.90;99368.41;1692953;84;21207;-82
2022/06/08 05:48:10;;;;;;;2.65;1.00;;;;;;;22.99;43.33;99368.98;1693298;84;21145;-83
2022/06/08 05:50:40;;;;;;;4.83;1.27;;;;;;;23.02;42.90;99369.72;1695648;84;22530;-83
2022/06/08 05:53:09;;;;;;;4.30;1.32;;;;;;;23.06;42.34;99372.47;1673783;84;21077;-84
2022/06/08 05:55:35;;;;;;;14.25;2.17;;;;;;;23.09;42.53;99370.39;1640709;87;21101;-82
2022/06/08 05:58:02;;;;;;;9.85;3.30;;;;;;;23.16;43.24;99365.32;1669062;85;21055;-81
2022/06/08 06:00:33;;;;;;;15.93;1.92;;;;;;;23.22;42.60;99366.13;1695316;84;21774;-82
2022/06/08 06:03:00;;;;;;;6.70;1.20;;;;;;;23.27;42.15;99364.38;1695802;84;21179;-82
2022/06/08 06:05:30;;;;;;;7.20;1.65;;;;;;;23.31;41.04;99357.73;1673814;84;21631;-84
2022/06/08 06:07:58;;;;;;;10.15;1.17;;;;;;;23.35;41.86;99361.34;1695841;84;21080;-82
2022/06/08 06:10:28;;;;;;;6.62;1.45;;;;;;;23.43;41.28;99361.14;1695193;84;21128;-82
2022/06/08 06:12:55;;;;;;;6.37;1.10;;;;;;;23.51;42.08;99357.27;1692394;84;21767;-79
2022/06/08 06:15:25;;;;;;;1.37;1.27;;;;;;;23.59;41.36;99356.07;1675868;85;21556;-84
2022/06/08 06:17:51;;;;;;;4.70;1.00;;;;;;;23.66;41.75;99353.17;1676319;85;21073;-83
2022/06/08 06:20:20;;;;;;;1.82;1.00;;;;;;;23.75;41.31;99358.18;1676169;85;21026;-84
2022/06/08 06:22:54;;;;;;;3.52;1.10;;;;;;;23.83;41.20;99360.20;1674974;85;21145;-84
2022/06/08 06:25:22;;;;;;;6.95;1.57;;;;;;;23.92;40.53;99355.30;1659570;85;21133;-81
2022/06/08 06:27:56;;;;;;;;;;;;;;;23.98;41.03;99352.05;1677124;85;21049;-82
2022/06/08 06:30:28;;;;;;;5.50;1.87;;;;;;;24.10;40.26;99354.93;1666232;85;20232;-85
2022/06/08 06:32:59;;;;;;;5.83;1.40;;;;;;;24.18;39.08;99348.84;1666937;85;21019;-82
2022/06/08 06:35:29;;;;;;;2.58;1.07;;;;;;;24.25;40.15;99349.12;1669499;85;22287;-83
2022/06/08 06:37:58;;;;;;;13.13;1.10;;;;;;;24.34;41.17;99350.91;1668855;85;21142;-82
2022/06/08 06:40:24;;;;;;;4.87;0.90;;;;;;;24.42;38.37;99359.11;1669345;85;21145;-83
2022/06/08 06:42:51;;;;;;;11.35;0.98;;;;;;;24.48;37.36;99345.59;1669330;85;21102;-83
2022/06/08 06:45:37;;;;;;;2.72;0.72;;;;;;;24.53;37.77;99352.72;1669358;85;21604;-83
2022/06/08 06:48:06;;;;;;;6.12;0.72;;;;;;;24.60;37.35;99350.33;1666982;85;21349;-85
2022/06/08 06:50:34;;;;;;;7.97;0.60;;;;;;;24.62;37.14;99337.56;1668981;85;21023;-83
2022/06/08 06:53:02;;;;;;;8.33;0.90;;;;;;;24.67;37.63;99340.66;1669146;85;20982;-82
2022/06/08 06:55:31;;;;;;;1.82;0.78;;;;;;;24.73;37.23;99345.45;1669288;85;21557;-84
2022/06/08 06:58:01;;;;;;;3.40;0.70;;;;;;;24.80;37.31;99342.52;1669089;85;21078;-85
2022/06/08 07:00:30;;;;;;;6.53;1.12;;;;;;;24.89;37.82;99342.62;1669077;85;21900;-81
2022/06/08 07:03:00;;;;;;;5.90;0.80;;;;;;;24.96;37.29;99339.67;1668967;85;21058;-83
2022/06/08 07:05:31;;;;;;;1.10;0.90;;;;;;;25.03;37.61;99345.66;1669227;85;21072;-86
2022/06/08 07:07:57;;;;;;;5.87;0.80;;;;;;;25.12;36.69;99340.38;1669338;85;21584;-84
2022/06/08 07:10:25;;;;;;;1.77;0.80;;;;;;;25.17;36.42;99340.26;1669282;85;21599;-82
2022/06/08 07:12:52;;;;;;;4.33;1.00;;;;;;;25.20;36.07;99344.48;1669173;85;21562;-83
2022/06/08 07:15:20;;;;;;;2.67;0.88;;;;;;;25.21;36.78;99346.19;1697053;84;22091;-82
2022/06/08 07:17:47;;;;;;;1.42;0.75;;;;;;;25.20;35.65;99347.17;1699615;84;21082;-84
2022/06/08 07:20:18;;;;;;;2.37;0.90;;;;;;;25.19;36.66;99338.25;1706511;82;21138;-83
2022/06/08 07:22:45;;;;;;;1.72;1.00;;;;;;;25.25;36.81;99336.83;1729637;83;21036;-84
2022/06/08 07:25:12;;;;;;;2.87;0.80;;;;;;;25.33;37.22;99334.73;1726062;82;22318;-83
2022/06/08 07:27:39;;;;;;;1.15;0.70;;;;;;;25.44;36.82;99333.17;1726519;83;21057;-85
2022/06/08 07:30:07;;;;;;;2.95;0.93;;;;;;;25.51;36.53;99335.59;1726400;82;21111;-85
2022/06/08 07:32:34;;;;;;;1.12;0.80;;;;;;;25.61;36.78;99341.41;1726538;83;21120;-85
2022/06/08 07:35:02;;;;;;;2.45;0.70;;;;;;;25.70;36.83;99335.92;1726361;83;21029;-85
2022/06/08 07:37:29;;;;;;;1.60;0.70;;;;;;;25.81;36.39;99340.24;1726429;82;21581;-83
2022/06/08 07:39:56;;;;;;;1.67;0.78;;;;;;;25.90;35.99;99332.55;1726476;82;20989;-83
2022/06/08 07:42:22;;;;;;;6.62;0.82;;;;;;;26.00;36.24;99331.16;1726449;83;21119;-85
2022/06/08 07:44:49;;;;;;;16.87;1.30;;;;;;;26.13;36.54;99333.45;1726465;82;21159;-83
2022/06/08 07:47:16;;;;;;;9.25;0.90;;;;;;;26.24;36.01;99334.55;1726443;83;21024;-84
2022/06/08 07:49:49;;;;;;;5.12;0.70;;;;;;;26.33;34.72;99336.27;1726351;82;21841;-84
2022/06/08 07:52:14;;;;;;;3.70;0.75;;;;;;;26.41;34.87;99335.48;1725931;83;20996;-84
2022/06/08 07:54:42;;;;;;;1.85;0.80;;;;;;;26.47;35.39;99343.44;1727727;83;21133;-85
2022/06/08 07:57:20;;;;;;;5.08;0.98;;;;;;;26.48;34.89;99341.09;1728094;82;21113;-87
2022/06/08 07:59:48;;;;;;;1.45;0.62;;;;;;;26.50;35.53;99330.98;1727123;82;20995;-78
2022/06/08 08:02:14;;;;;;;3.65;0.65;;;;;;;26.55;35.64;99331.34;1728462;82;22267;-76
2022/06/08 08:04:41;;;;;;;2.00;0.90;;;;;;;26.61;35.22;99332.06;1728049;82;21666;-76
2022/06/08 08:07:09;;;;;;;2.58;0.80;;;;;;;26.61;34.17;99342.85;1727785;83;21129;-76
2022/06/08 08:09:37;;;;;;;1.62;0.90;;;;;;;26.60;34.37;99338.45;1728076;82;21066;-75
2022/06/08 08:12:05;;;;;;;6.47;0.72;;;;;;;26.55;34.17;99340.78;1727945;83;21062;-74
2022/06/08 08:14:33;;;;;;;3.08;0.80;;;;;;;26.58;34.48;99336.91;1728900;82;21624;-75
2022/06/08 08:17:03;;;;;;;3.27;0.88;;;;;;;26.60;34.33;99338.45;1729507;83;22357;-76
2022/06/08 08:19:29;;;;;;;3.75;1.10;;;;;;;26.49;34.37;99342.28;1704292;84;21131;-77
2022/06/08 08:21:56;;;;;;;1.52;0.70;;;;;;;26.40;34.71;99336.99;1729517;82;21007;-77
2022/06/08 08:24:23;;;;;;;2.50;0.72;;;;;;;26.38;34.34;99336.28;1729747;82;20963;-76
2022/06/08 08:26:50;;;;;;;1.75;0.70;;;;;;;26.27;33.69;99332.85;1729210;83;21040;-75
2022/06/08 08:29:17;;;;;;;2.35;0.57;;;;;;;26.11;33.94;99338.16;1704210;84;21036;-76
2022/06/08 08:31:44;;;;;;;4.00;0.82;;;;;;;25.94;35.37;99335.30;1674630;85;21126;-77
2022/06/08 08:34:11;;;;;;;0.95;0.60;;;;;;;25.91;34.31;99336.12;1729421;83;21074;-77
2022/06/08 08:36:38;;;;;;;1.45;0.75;;;;;;;26.00;33.87;99338.40;1729647;82;21038;-75
2022/06/08 08:39:05;;;;;;;1.82;0.85;;;;;;;26.13;33.61;99332.09;1704301;84;21612;-77
2022/06/08 08:44:45;;;;;;;1.27;0.80;;;;;;;26.49;33.64;99325.23;1729571;82;21047;-76
2022/06/08 08:47:42;;;;;;;1.00;0.88;;;;;;;26.71;34.30;99321.66;1728869;83;21576;-76
2022/06/08 08:50:24;;;;;;;2.45;1.02;;;;;;;26.84;32.84;99318.84;1729566;83;21660;-76
2022/06/08 08:53:12;;;;;;;1.47;0.68;;;;;;;26.82;31.70;99330.83;1729520;83;21140;-76
2022/06/08 08:55:51;;;;;;;2.05;0.72;;;;;;;26.72;31.57;99319.31;1704209;84;21109;-78
2022/06/08 08:58:25;;;;;;;5.25;1.17;;;;;;;26.64;31.86;99317.41;1704065;84;21596;-76
2022/06/08 09:01:12;;;;;;;1.85;0.65;;;;;;;26.58;32.35;99320.23;1649777;85;21082;-76
2022/06/08 09:03:44;;;;;;;5.15;1.75;;;;;;;26.55;32.44;99311.11;1729253;83;20995;-75
2022/06/08 09:06:22;;;;;;;1.00;0.90;;;;;;;26.62;33.92;99315.36;1729192;82;39361;-77
2022/06/08 09:08:53;;;;;;;3.67;1.00;;;;;;;26.77;33.30;99315.11;1704246;84;21598;-77
2022/06/08 09:11:25;;;;;;;6.60;0.95;;;;;;;26.94;32.91;99305.22;1729171;82;21485;-76
2022/06/08 09:13:57;;;;;;;2.67;1.02;;;;;;;27.12;33.34;99313.70;1729310;83;21153;-75
2022/06/08 09:16:41;;;;;;;0.60;0.60;;;;;;;27.27;33.51;99308.50;1729365;83;21113;-75
2022/06/08 09:19:28;;;;;;;;;;;;;;;27.42;33.06;99312.30;1708899;82;22029;-75
2022/06/08 09:22:03;;;;;;;7.60;0.75;;;;;;;27.49;32.32;99311.96;1674603;85;20937;-76
2022/06/08 09:25:03;;;;;;;7.00;0.90;;;;;;;27.49;32.21;99308.39;1704620;84;21081;-75
2022/06/08 09:27:36;;;;;;;1.87;1.00;;;;;;;27.43;30.75;99304.52;1704544;84;21073;-75
2022/06/08 09:30:19;;;;;;;8.10;6.35;;;;;;;27.26;30.82;99306.31;1674632;85;21134;-74
2022/06/08 09:32:59;;;;;;;5.15;2.30;;;;;;;27.02;32.49;99302.55;1704679;84;21093;-75
2022/06/08 09:35:50;;;;;;;3.80;1.72;;;;;;;27.02;33.89;99302.55;1704513;84;21129;-74
2022/06/08 09:38:17;;;;;;;2.40;1.00;;;;;;;27.19;33.31;99293.14;1704574;84;21041;-74
2022/06/08 09:41:01;;;;;;;4.87;0.90;;;;;;;27.42;34.58;99291.52;1674713;85;21624;-75
2022/06/08 09:43:45;;;;;;;1.72;0.80;;;;;;;27.64;33.33;99290.52;1704430;84;21081;-74
2022/06/08 09:53:18;;;;;;;4.22;1.05;;;;;;;28.24;31.93;99293.34;1698964;84;21155;-78
2022/06/08 09:56:17;;;;;;;4.80;0.85;;;;;;;28.35;31.26;99292.14;1696169;84;21536;-77
2022/06/08 09:59:07;;;;;;;3.35;0.65;;;;;;;28.32;30.68;99279.80;1698902;84;20969;-77
2022/06/08 10:01:52;;;;;;;2.60;1.02;;;;;;;28.38;32.65;99290.45;1698731;84;21086;-78
2022/06/08 10:04:59;;;;;;;0.78;0.78;;;;;;;28.51;31.86;99282.63;1698721;84;21052;-78
2022/06/08 10:07:55;;;;;;;5.75;0.90;;;;;;;28.68;31.59;99278.52;1699107;84;21108;-78
2022/06/08 10:10:36;;;;;;;2.33;0.70;;;;;;;28.83;31.18;99276.77;1698803;84;21044;-77
2022/06/08 10:13:13;;;;;;;2.33;1.05;;;;;;;28.91;30.66;99274.00;1698868;84;21726;-77
2022/06/08 10:15:46;;;;;;;2.30;0.85;;;;;;;28.89;30.35;99271.98;1689148;84;21653;-77
2022/06/08 10:18:26;;;;;;;1.47;0.85;;;;;;;28.68;28.67;99278.52;1686220;85;21053;-77
2022/06/08 10:20:58;;;;;;;1.82;0.80;;;;;;;28.34;29.89;99272.86;1686214;85;21001;-77
2022/06/08 10:23:32;;;;;;;3.33;0.80;;;;;;;28.30;30.56;99273.72;1686359;85;21137;-78
2022/06/08 10:26:03;;;;;;;2.40;0.70;;;;;;;28.35;30.57;99274.04;1686234;85;21016;-76
2022/06/08 10:28:47;;;;;;;2.20;1.00;;;;;;;28.42;30.46;99257.95;1686618;84;21112;-77
2022/06/08 10:31:19;;;;;;;6.92;0.90;;;;;;;28.51;30.05;99263.69;1647013;87;21015;-77
2022/06/08 10:34:04;;;;;;;3.72;0.80;;;;;;;28.49;30.69;99257.58;1685846;85;21421;-77
2022/06/08 10:36:31;;;;;;;1.90;0.88;;;;;;;28.53;30.30;99267.05;1685768;85;21480;-77
2022/06/08 10:39:02;;;;;;;2.40;0.93;;;;;;;28.67;29.38;99264.66;1685936;85;21029;-77
2022/06/08 10:44:50;;;;;;;5.12;0.70;;;;;;;28.84;29.08;99247.30;1640298;87;21151;-77
2022/06/08 10:47:22;;;;;;;2.02;0.70;;;;;;;28.84;29.08;99247.30;1685773;85;21054;-77
2022/06/08 10:50:03;;;;;;;6.90;1.02;;;;;;;28.89;28.58;99245.42;1686202;84;21057;-77
2022/06/08 10:52:46;;;;;;;1.98;0.70;;;;;;;28.90;28.99;99248.48;1667455;85;21062;-76
2022/06/08 10:55:21;;;;;;;2.40;0.75;;;;;;;29.04;30.39;99245.50;1667144;85;21743;-77
2022/06/08 10:57:56;;;;;;;7.83;0.82;;;;;;;29.18;30.38;99249.33;1666967;85;21011;-77
2022/06/08 11:00:28;;;;;;;3.93;0.73;;;;;;;29.25;29.70;99248.94;1669292;85;21004;-79
2022/06/08 11:03:03;;;;;;;4.58;0.53;;;;;;;29.28;29.72;99243.99;1659725;85;21306;-76
2022/06/08 11:05:43;;;;;;;3.08;0.98;;;;;;;29.28;29.91;99243.16;1669374;85;21073;-77
2022/06/08 11:08:17;;;;;;;2.37;0.80;;;;;;;29.28;30.16;99245.34;1669325;85;21161;-77
2022/06/08 11:10:51;;;;;;;3.87;0.70;;;;;;;29.24;29.11;99239.97;1669452;85;21030;-77
2022/06/08 11:13:33;;;;;;;2.98;1.12;;;;;;;29.18;29.59;99243.91;1669316;85;21112;-77
2022/06/08 11:16:11;;;;;;;1.05;0.78;;;;;;;29.15;29.54;99246.94;1649891;85;21556;-77
2022/06/08 11:18:50;;;;;;;1.62;0.70;;;;;;;29.17;29.04;99244.44;1650807;85;21501;-77
2022/06/08 11:21:50;;;;;;;3.85;0.93;;;;;;;29.27;29.48;99239.61;1695371;84;21947;-77
2022/06/08 11:24:38;;;;;;;2.55;1.15;;;;;;;29.43;30.22;99241.86;1706751;84;21049;-77
2022/06/08 11:27:29;;;;;;;3.12;0.70;;;;;;;29.61;29.27;99234.25;1683596;84;21105;-77
2022/06/08 11:30:15;;;;;;;2.35;0.70;;;;;;;29.70;27.47;99232.83;1706425;84;21058;-76
2022/06/08 11:32:57;;;;;;;0.93;0.82;;;;;;;29.67;29.20;99229.13;1692339;84;21643;-78
2022/06/08 11:36:01;;;;;;;2.67;0.80;;;;;;;29.75;27.99;99241.25;1707785;84;21067;-79
2022/06/08 11:38:56;;;;;;;2.37;0.68;;;;;;;29.68;28.11;99231.65;1675942;84;21058;-76
2022/06/08 11:41:39;;;;;;;1.95;0.75;;;;;;;29.77;29.23;99231.08;1726917;82;21487;-76
2022/06/08 11:44:18;;;;;;;1.57;0.50;;;;;;;29.85;27.76;99222.87;1727896;82;21566;-77
2022/06/08 11:47:02;;;;;;;3.33;0.70;;;;;;;29.83;27.71;99223.58;1707763;84;21103;-77
2022/06/08 11:49:38;;;;;;;6.22;0.82;;;;;;;29.81;27.89;99222.92;1705477;84;21156;-77
2022/06/08 11:52:26;;;;;;;4.33;0.62;;;;;;;29.78;27.74;99224.64;1706098;84;21079;-77
2022/06/08 11:55:17;;;;;;;2.37;0.60;;;;;;;29.72;28.13;99221.27;1704507;84;21657;-79
2022/06/08 11:57:58;;;;;;;1.72;0.60;;;;;;;29.68;28.08;99211.31;1706150;84;21123;-77
2022/06/08 12:00:39;;;;;;;0.60;0.60;;;;;;;29.77;28.53;99206.68;1703932;84;21012;-76
2022/06/08 12:03:27;;;;;;;4.75;0.80;;;;;;;29.95;29.01;99201.74;1682810;82;21087;-78
2022/06/08 12:06:08;;;;;;;2.70;0.72;;;;;;;30.13;29.25;99202.73;1707737;84;21036;-77
2022/06/08 12:08:46;;;;;;;1.02;0.80;;;;;;;30.28;26.77;99201.87;1678186;85;21085;-77
2022/06/08 12:11:14;;;;;;;2.87;0.78;;;;;;;30.33;26.53;99208.95;1691030;84;21571;-77
2022/06/08 12:14:03;;;;;;;0.70;0.53;;;;;;;30.43;27.03;99204.60;1654592;85;21062;-77
2022/06/08 12:16:35;;;;;;;7.40;0.68;;;;;;;30.54;26.98;99201.41;1661935;85;21119;-77
2022/06/08 12:19:16;;;;;;;1.20;0.65;;;;;;;30.58;27.85;99207.30;1669673;85;21188;-78
2022/06/08 12:21:46;;;;;;;1.40;0.60;;;;;;;30.62;27.21;99202.66;1668358;85;21358;-77